In Rescue
 
Open Full Screen Window  High Contrast Mode
Wind Gusting 00 knots
08
September 21, 2019 9:39 AM EDT
Weather Information
Wind Direction
  260 °
Wind Speed
  08 kt (9 mph)
Wind Gust
  00 kt (0 mph)
Altimeter
30.27 in
Visibility
4 SM
Temperature
21° C
70° F
Dewpoint
20° C
68° F
Humidity
94%
1hr Rain Fall
00.00 in.
24hr Rain Fall
00.07 in.
Sky Condition
Overcast @ 3,600 ft
Broken @ 3,000 ft
Scattered @ 1,600 ft
MVFR

METAR KMRT 211339Z AUTO 26008KT 4SM SCT016 BKN030 OVC036 21/20 A3027 RMK AO2 T02100197

FAA Disclaimer: The data displayed is for advisory purposes only and is not to be used for flight planning or operations.